sensor_id;sensor_type;location;lat;lon;timestamp;P1;durP1;ratioP1;P2;durP2;ratioP2
7233;SDS011;3658;47.992;10.158;2024-03-02T00:00:39;2.50;;;1.80;;
7233;SDS011;3658;47.992;10.158;2024-03-02T00:03:06;2.47;;;1.80;;
7233;SDS011;3658;47.992;10.158;2024-03-02T00:05:34;1.80;;;1.70;;
7233;SDS011;3658;47.992;10.158;2024-03-02T00:08:02;1.87;;;1.60;;
7233;SDS011;3658;47.992;10.158;2024-03-02T00:10:34;1.97;;;1.80;;
7233;SDS011;3658;47.992;10.158;2024-03-02T00:13:05;1.70;;;1.60;;
7233;SDS011;3658;47.992;10.158;2024-03-02T00:15:41;2.30;;;1.80;;
7233;SDS011;3658;47.992;10.158;2024-03-02T00:18:14;2.03;;;1.80;;
7233;SDS011;3658;47.992;10.158;2024-03-02T00:20:44;1.70;;;1.60;;
7233;SDS011;3658;47.992;10.158;2024-03-02T00:23:13;1.93;;;1.60;;
7233;SDS011;3658;47.992;10.158;2024-03-02T00:25:42;2.17;;;1.80;;
7233;SDS011;3658;47.992;10.158;2024-03-02T00:28:11;2.20;;;2.00;;
7233;SDS011;3658;47.992;10.158;2024-03-02T00:30:55;2.13;;;1.93;;
7233;SDS011;3658;47.992;10.158;2024-03-02T00:33:23;2.30;;;2.10;;
7233;SDS011;3658;47.992;10.158;2024-03-02T00:35:52;2.10;;;1.90;;
7233;SDS011;3658;47.992;10.158;2024-03-02T00:38:21;1.93;;;1.83;;
7233;SDS011;3658;47.992;10.158;2024-03-02T00:40:48;1.87;;;1.77;;
7233;SDS011;3658;47.992;10.158;2024-03-02T00:46:10;3.50;;;1.50;;
7233;SDS011;3658;47.992;10.158;2024-03-02T00:48:38;2.20;;;2.00;;
7233;SDS011;3658;47.992;10.158;2024-03-02T00:51:14;2.10;;;1.90;;
7233;SDS011;3658;47.992;10.158;2024-03-02T00:53:42;2.10;;;1.90;;
7233;SDS011;3658;47.992;10.158;2024-03-02T00:56:09;2.10;;;1.90;;
7233;SDS011;3658;47.992;10.158;2024-03-02T00:58:37;1.97;;;1.83;;
7233;SDS011;3658;47.992;10.158;2024-03-02T01:01:04;2.77;;;2.10;;
7233;SDS011;3658;47.992;10.158;2024-03-02T01:03:32;2.63;;;1.90;;
7233;SDS011;3658;47.992;10.158;2024-03-02T01:05:58;2.70;;;1.67;;
7233;SDS011;3658;47.992;10.158;2024-03-02T01:08:24;2.53;;;1.97;;
7233;SDS011;3658;47.992;10.158;2024-03-02T01:10:52;2.30;;;1.90;;
7233;SDS011;3658;47.992;10.158;2024-03-02T01:13:20;2.27;;;2.07;;
7233;SDS011;3658;47.992;10.158;2024-03-02T01:15:48;2.20;;;1.90;;
7233;SDS011;3658;47.992;10.158;2024-03-02T01:18:14;2.77;;;1.90;;
7233;SDS011;3658;47.992;10.158;2024-03-02T01:20:41;2.40;;;1.90;;
7233;SDS011;3658;47.992;10.158;2024-03-02T01:23:08;1.80;;;1.70;;
7233;SDS011;3658;47.992;10.158;2024-03-02T01:25:35;2.33;;;2.10;;
7233;SDS011;3658;47.992;10.158;2024-03-02T01:28:03;1.80;;;1.70;;
7233;SDS011;3658;47.992;10.158;2024-03-02T01:30:30;2.20;;;2.00;;
7233;SDS011;3658;47.992;10.158;2024-03-02T01:32:57;1.77;;;1.67;;
7233;SDS011;3658;47.992;10.158;2024-03-02T01:35:25;2.30;;;2.10;;
7233;SDS011;3658;47.992;10.158;2024-03-02T01:37:52;1.87;;;1.77;;
7233;SDS011;3658;47.992;10.158;2024-03-02T01:40:19;2.03;;;1.70;;
7233;SDS011;3658;47.992;10.158;2024-03-02T01:42:46;1.80;;;1.70;;
7233;SDS011;3658;47.992;10.158;2024-03-02T01:45:14;2.27;;;2.07;;
7233;SDS011;3658;47.992;10.158;2024-03-02T01:47:41;2.13;;;1.80;;
7233;SDS011;3658;47.992;10.158;2024-03-02T01:50:08;2.03;;;1.87;;
7233;SDS011;3658;47.992;10.158;2024-03-02T01:52:37;1.70;;;1.60;;
7233;SDS011;3658;47.992;10.158;2024-03-02T01:55:04;2.23;;;2.03;;
7233;SDS011;3658;47.992;10.158;2024-03-02T01:57:32;2.00;;;1.80;;
7233;SDS011;3658;47.992;10.158;2024-03-02T01:59:59;2.13;;;1.60;;
7233;SDS011;3658;47.992;10.158;2024-03-02T02:02:27;1.90;;;1.80;;
7233;SDS011;3658;47.992;10.158;2024-03-02T02:04:54;2.10;;;1.90;;
7233;SDS011;3658;47.992;10.158;2024-03-02T02:07:21;2.20;;;2.00;;
7233;SDS011;3658;47.992;10.158;2024-03-02T02:09:47;1.70;;;1.60;;
7233;SDS011;3658;47.992;10.158;2024-03-02T02:12:14;1.80;;;1.70;;
7233;SDS011;3658;47.992;10.158;2024-03-02T02:14:46;1.73;;;1.63;;
7233;SDS011;3658;47.992;10.158;2024-03-02T02:17:14;1.90;;;1.70;;
7233;SDS011;3658;47.992;10.158;2024-03-02T02:19:42;1.90;;;1.70;;
7233;SDS011;3658;47.992;10.158;2024-03-02T02:22:10;1.93;;;1.70;;
7233;SDS011;3658;47.992;10.158;2024-03-02T02:24:39;1.73;;;1.60;;
7233;SDS011;3658;47.992;10.158;2024-03-02T02:27:06;2.20;;;2.00;;
7233;SDS011;3658;47.992;10.158;2024-03-02T02:29:32;1.77;;;1.67;;
7233;SDS011;3658;47.992;10.158;2024-03-02T02:31:59;1.70;;;1.60;;
7233;SDS011;3658;47.992;10.158;2024-03-02T02:34:26;1.97;;;1.67;;
7233;SDS011;3658;47.992;10.158;2024-03-02T02:36:53;2.27;;;1.90;;
7233;SDS011;3658;47.992;10.158;2024-03-02T02:39:21;1.87;;;1.70;;
7233;SDS011;3658;47.992;10.158;2024-03-02T02:41:48;1.90;;;1.70;;
7233;SDS011;3658;47.992;10.158;2024-03-02T02:44:15;3.17;;;1.70;;
7233;SDS011;3658;47.992;10.158;2024-03-02T02:46:42;1.70;;;1.60;;
7233;SDS011;3658;47.992;10.158;2024-03-02T02:49:08;2.40;;;2.20;;
7233;SDS011;3658;47.992;10.158;2024-03-02T02:51:35;1.80;;;1.70;;
7233;SDS011;3658;47.992;10.158;2024-03-02T02:54:02;2.30;;;1.90;;
7233;SDS011;3658;47.992;10.158;2024-03-02T02:56:30;1.77;;;1.67;;
7233;SDS011;3658;47.992;10.158;2024-03-02T02:58:57;1.90;;;1.80;;
7233;SDS011;3658;47.992;10.158;2024-03-02T03:01:24;1.80;;;1.70;;
7233;SDS011;3658;47.992;10.158;2024-03-02T03:03:50;1.80;;;1.70;;
7233;SDS011;3658;47.992;10.158;2024-03-02T03:06:17;2.00;;;1.80;;
7233;SDS011;3658;47.992;10.158;2024-03-02T03:08:44;1.90;;;1.80;;
7233;SDS011;3658;47.992;10.158;2024-03-02T03:11:10;1.80;;;1.70;;
7233;SDS011;3658;47.992;10.158;2024-03-02T03:13:38;1.70;;;1.60;;
7233;SDS011;3658;47.992;10.158;2024-03-02T03:16:05;1.73;;;1.63;;
7233;SDS011;3658;47.992;10.158;2024-03-02T03:18:32;1.93;;;1.80;;
7233;SDS011;3658;47.992;10.158;2024-03-02T03:20:59;1.73;;;1.63;;
7233;SDS011;3658;47.992;10.158;2024-03-02T03:23:25;1.70;;;1.60;;
7233;SDS011;3658;47.992;10.158;2024-03-02T03:25:52;1.80;;;1.70;;
7233;SDS011;3658;47.992;10.158;2024-03-02T03:28:19;1.67;;;1.57;;
7233;SDS011;3658;47.992;10.158;2024-03-02T03:30:46;1.83;;;1.73;;
7233;SDS011;3658;47.992;10.158;2024-03-02T03:33:13;1.80;;;1.70;;
7233;SDS011;3658;47.992;10.158;2024-03-02T03:35:39;1.80;;;1.70;;
7233;SDS011;3658;47.992;10.158;2024-03-02T03:38:06;2.00;;;1.80;;
7233;SDS011;3658;47.992;10.158;2024-03-02T03:40:33;1.80;;;1.70;;
7233;SDS011;3658;47.992;10.158;2024-03-02T03:43:00;1.80;;;1.70;;
7233;SDS011;3658;47.992;10.158;2024-03-02T03:45:27;1.70;;;1.60;;
7233;SDS011;3658;47.992;10.158;2024-03-02T03:47:56;1.67;;;1.57;;
7233;SDS011;3658;47.992;10.158;2024-03-02T03:50:23;1.60;;;1.50;;
7233;SDS011;3658;47.992;10.158;2024-03-02T03:52:50;1.60;;;1.50;;
7233;SDS011;3658;47.992;10.158;2024-03-02T03:55:17;1.70;;;1.60;;
7233;SDS011;3658;47.992;10.158;2024-03-02T03:57:44;1.60;;;1.50;;
7233;SDS011;3658;47.992;10.158;2024-03-02T04:00:11;1.80;;;1.70;;
7233;SDS011;3658;47.992;10.158;2024-03-02T04:02:38;1.60;;;1.50;;
7233;SDS011;3658;47.992;10.158;2024-03-02T04:05:07;2.13;;;1.73;;
7233;SDS011;3658;47.992;10.158;2024-03-02T04:07:35;2.30;;;1.53;;
7233;SDS011;3658;47.992;10.158;2024-03-02T04:10:06;1.63;;;1.53;;
7233;SDS011;3658;47.992;10.158;2024-03-02T04:12:34;1.70;;;1.60;;
7233;SDS011;3658;47.992;10.158;2024-03-02T04:15:01;1.50;;;1.40;;
7233;SDS011;3658;47.992;10.158;2024-03-02T04:17:29;1.50;;;1.40;;
7233;SDS011;3658;47.992;10.158;2024-03-02T04:19:57;1.50;;;1.40;;
7233;SDS011;3658;47.992;10.158;2024-03-02T04:24:54;1.57;;;1.40;;
7233;SDS011;3658;47.992;10.158;2024-03-02T04:27:20;1.50;;;1.40;;
7233;SDS011;3658;47.992;10.158;2024-03-02T04:29:47;1.50;;;1.40;;
7233;SDS011;3658;47.992;10.158;2024-03-02T04:32:14;1.60;;;1.50;;
7233;SDS011;3658;47.992;10.158;2024-03-02T04:34:41;1.40;;;1.30;;
7233;SDS011;3658;47.992;10.158;2024-03-02T04:37:08;1.50;;;1.40;;
7233;SDS011;3658;47.992;10.158;2024-03-02T04:39:38;1.40;;;1.30;;
7233;SDS011;3658;47.992;10.158;2024-03-02T04:42:05;1.33;;;1.23;;
7233;SDS011;3658;47.992;10.158;2024-03-02T04:44:32;1.50;;;1.40;;
7233;SDS011;3658;47.992;10.158;2024-03-02T04:46:58;2.07;;;1.60;;
7233;SDS011;3658;47.992;10.158;2024-03-02T04:49:25;1.50;;;1.40;;
7233;SDS011;3658;47.992;10.158;2024-03-02T04:51:52;1.67;;;1.57;;
7233;SDS011;3658;47.992;10.158;2024-03-02T04:54:18;1.67;;;1.57;;
7233;SDS011;3658;47.992;10.158;2024-03-02T04:56:46;1.70;;;1.60;;
7233;SDS011;3658;47.992;10.158;2024-03-02T04:59:15;1.67;;;1.43;;
7233;SDS011;3658;47.992;10.158;2024-03-02T05:01:42;1.63;;;1.40;;
7233;SDS011;3658;47.992;10.158;2024-03-02T05:04:09;1.50;;;1.40;;
7233;SDS011;3658;47.992;10.158;2024-03-02T05:06:37;1.50;;;1.40;;
7233;SDS011;3658;47.992;10.158;2024-03-02T05:09:04;1.30;;;1.20;;
7233;SDS011;3658;47.992;10.158;2024-03-02T05:11:31;1.60;;;1.50;;
7233;SDS011;3658;47.992;10.158;2024-03-02T05:14:13;1.60;;;1.50;;
7233;SDS011;3658;47.992;10.158;2024-03-02T05:16:40;1.43;;;1.33;;
7233;SDS011;3658;47.992;10.158;2024-03-02T05:19:07;2.17;;;1.43;;
7233;SDS011;3658;47.992;10.158;2024-03-02T05:21:34;1.40;;;1.30;;
7233;SDS011;3658;47.992;10.158;2024-03-02T05:24:01;1.50;;;1.40;;
7233;SDS011;3658;47.992;10.158;2024-03-02T05:26:27;1.50;;;1.40;;
7233;SDS011;3658;47.992;10.158;2024-03-02T05:28:54;1.43;;;1.33;;
7233;SDS011;3658;47.992;10.158;2024-03-02T05:31:22;1.60;;;1.50;;
7233;SDS011;3658;47.992;10.158;2024-03-02T05:33:49;1.57;;;1.43;;
7233;SDS011;3658;47.992;10.158;2024-03-02T05:36:17;1.60;;;1.50;;
7233;SDS011;3658;47.992;10.158;2024-03-02T05:38:45;1.23;;;1.20;;
7233;SDS011;3658;47.992;10.158;2024-03-02T05:41:12;1.63;;;1.50;;
7233;SDS011;3658;47.992;10.158;2024-03-02T05:43:39;1.50;;;1.40;;
7233;SDS011;3658;47.992;10.158;2024-03-02T05:46:05;1.37;;;1.27;;
7233;SDS011;3658;47.992;10.158;2024-03-02T05:48:33;1.37;;;1.27;;
7233;SDS011;3658;47.992;10.158;2024-03-02T05:51:00;1.27;;;1.20;;
7233;SDS011;3658;47.992;10.158;2024-03-02T05:53:27;1.40;;;1.30;;
7233;SDS011;3658;47.992;10.158;2024-03-02T05:55:54;1.30;;;1.20;;
7233;SDS011;3658;47.992;10.158;2024-03-02T05:58:21;1.40;;;1.30;;
7233;SDS011;3658;47.992;10.158;2024-03-02T06:00:58;1.40;;;1.30;;
7233;SDS011;3658;47.992;10.158;2024-03-02T06:03:25;1.30;;;1.20;;
7233;SDS011;3658;47.992;10.158;2024-03-02T06:05:54;1.50;;;1.40;;
7233;SDS011;3658;47.992;10.158;2024-03-02T06:08:21;1.83;;;1.40;;
7233;SDS011;3658;47.992;10.158;2024-03-02T06:10:48;1.50;;;1.40;;
7233;SDS011;3658;47.992;10.158;2024-03-02T06:13:14;1.50;;;1.40;;
7233;SDS011;3658;47.992;10.158;2024-03-02T06:15:41;1.27;;;1.17;;
7233;SDS011;3658;47.992;10.158;2024-03-02T06:18:08;1.30;;;1.20;;
7233;SDS011;3658;47.992;10.158;2024-03-02T06:20:35;1.70;;;1.30;;
7233;SDS011;3658;47.992;10.158;2024-03-02T06:23:03;1.30;;;1.20;;
7233;SDS011;3658;47.992;10.158;2024-03-02T06:25:30;1.50;;;1.40;;
7233;SDS011;3658;47.992;10.158;2024-03-02T06:27:57;1.27;;;1.17;;
7233;SDS011;3658;47.992;10.158;2024-03-02T06:30:23;1.17;;;1.10;;
7233;SDS011;3658;47.992;10.158;2024-03-02T06:32:50;1.83;;;1.40;;
7233;SDS011;3658;47.992;10.158;2024-03-02T06:35:17;2.23;;;1.50;;
7233;SDS011;3658;47.992;10.158;2024-03-02T06:37:44;1.53;;;1.30;;
7233;SDS011;3658;47.992;10.158;2024-03-02T06:40:12;3.07;;;1.30;;
7233;SDS011;3658;47.992;10.158;2024-03-02T06:42:39;2.13;;;1.20;;
7233;SDS011;3658;47.992;10.158;2024-03-02T06:45:06;1.20;;;1.10;;
7233;SDS011;3658;47.992;10.158;2024-03-02T06:47:33;1.50;;;1.30;;
7233;SDS011;3658;47.992;10.158;2024-03-02T06:49:59;2.30;;;1.47;;
7233;SDS011;3658;47.992;10.158;2024-03-02T06:52:26;1.60;;;1.50;;
7233;SDS011;3658;47.992;10.158;2024-03-02T06:54:53;1.27;;;1.17;;
7233;SDS011;3658;47.992;10.158;2024-03-02T06:57:21;1.37;;;1.27;;
7233;SDS011;3658;47.992;10.158;2024-03-02T06:59:49;1.83;;;1.47;;
7233;SDS011;3658;47.992;10.158;2024-03-02T07:02:18;1.40;;;1.20;;
7233;SDS011;3658;47.992;10.158;2024-03-02T07:04:45;1.53;;;1.43;;
7233;SDS011;3658;47.992;10.158;2024-03-02T07:07:12;1.60;;;1.17;;
7233;SDS011;3658;47.992;10.158;2024-03-02T07:09:39;2.50;;;1.40;;
7233;SDS011;3658;47.992;10.158;2024-03-02T07:12:06;1.40;;;1.30;;
7233;SDS011;3658;47.992;10.158;2024-03-02T07:14:34;1.80;;;1.40;;
7233;SDS011;3658;47.992;10.158;2024-03-02T07:17:18;1.63;;;1.40;;
7233;SDS011;3658;47.992;10.158;2024-03-02T07:19:45;1.63;;;1.53;;
7233;SDS011;3658;47.992;10.158;2024-03-02T07:22:12;2.97;;;1.70;;
7233;SDS011;3658;47.992;10.158;2024-03-02T07:24:39;1.40;;;1.30;;
7233;SDS011;3658;47.992;10.158;2024-03-02T07:27:07;1.40;;;1.30;;
7233;SDS011;3658;47.992;10.158;2024-03-02T07:29:35;2.73;;;1.70;;
7233;SDS011;3658;47.992;10.158;2024-03-02T07:32:02;2.23;;;1.50;;
7233;SDS011;3658;47.992;10.158;2024-03-02T07:34:29;1.70;;;1.57;;
7233;SDS011;3658;47.992;10.158;2024-03-02T07:36:56;1.50;;;1.40;;
7233;SDS011;3658;47.992;10.158;2024-03-02T07:39:23;3.33;;;1.83;;
7233;SDS011;3658;47.992;10.158;2024-03-02T07:41:50;1.30;;;1.20;;
7233;SDS011;3658;47.992;10.158;2024-03-02T07:44:17;2.97;;;1.50;;
7233;SDS011;3658;47.992;10.158;2024-03-02T07:46:45;3.53;;;1.47;;
7233;SDS011;3658;47.992;10.158;2024-03-02T07:49:14;4.80;;;1.50;;
7233;SDS011;3658;47.992;10.158;2024-03-02T07:51:41;1.37;;;1.17;;
7233;SDS011;3658;47.992;10.158;2024-03-02T07:54:09;3.40;;;1.60;;
7233;SDS011;3658;47.992;10.158;2024-03-02T07:56:36;3.07;;;1.50;;
7233;SDS011;3658;47.992;10.158;2024-03-02T07:59:03;1.70;;;1.33;;
7233;SDS011;3658;47.992;10.158;2024-03-02T08:01:30;2.13;;;1.50;;
7233;SDS011;3658;47.992;10.158;2024-03-02T08:03:59;1.60;;;1.47;;
7233;SDS011;3658;47.992;10.158;2024-03-02T08:06:28;1.93;;;1.40;;
7233;SDS011;3658;47.992;10.158;2024-03-02T08:08:55;1.60;;;1.50;;
7233;SDS011;3658;47.992;10.158;2024-03-02T08:11:23;3.03;;;1.53;;
7233;SDS011;3658;47.992;10.158;2024-03-02T08:13:50;2.20;;;1.53;;
7233;SDS011;3658;47.992;10.158;2024-03-02T08:16:17;3.97;;;2.20;;
7233;SDS011;3658;47.992;10.158;2024-03-02T08:18:45;5.47;;;1.93;;
7233;SDS011;3658;47.992;10.158;2024-03-02T08:21:13;3.30;;;1.70;;
7233;SDS011;3658;47.992;10.158;2024-03-02T08:23:40;4.03;;;1.80;;
7233;SDS011;3658;47.992;10.158;2024-03-02T08:26:08;4.50;;;1.83;;
7233;SDS011;3658;47.992;10.158;2024-03-02T08:28:35;10.10;;;2.50;;
7233;SDS011;3658;47.992;10.158;2024-03-02T08:31:02;2.53;;;1.43;;
7233;SDS011;3658;47.992;10.158;2024-03-02T08:33:29;6.43;;;1.80;;
7233;SDS011;3658;47.992;10.158;2024-03-02T08:35:56;2.40;;;1.53;;
7233;SDS011;3658;47.992;10.158;2024-03-02T08:38:24;4.23;;;1.70;;
7233;SDS011;3658;47.992;10.158;2024-03-02T08:40:51;5.30;;;1.80;;
7233;SDS011;3658;47.992;10.158;2024-03-02T08:43:18;2.77;;;1.60;;
7233;SDS011;3658;47.992;10.158;2024-03-02T08:45:47;2.00;;;1.70;;
7233;SDS011;3658;47.992;10.158;2024-03-02T08:48:14;5.10;;;2.00;;
7233;SDS011;3658;47.992;10.158;2024-03-02T08:50:41;4.43;;;1.80;;
7233;SDS011;3658;47.992;10.158;2024-03-02T08:53:08;2.93;;;1.67;;
7233;SDS011;3658;47.992;10.158;2024-03-02T08:55:36;2.27;;;1.80;;
7233;SDS011;3658;47.992;10.158;2024-03-02T08:58:02;2.33;;;1.63;;
7233;SDS011;3658;47.992;10.158;2024-03-02T09:00:29;2.23;;;2.00;;
7233;SDS011;3658;47.992;10.158;2024-03-02T09:02:56;2.90;;;1.60;;
7233;SDS011;3658;47.992;10.158;2024-03-02T09:05:23;3.70;;;1.90;;
7233;SDS011;3658;47.992;10.158;2024-03-02T09:07:50;2.27;;;1.40;;
7233;SDS011;3658;47.992;10.158;2024-03-02T09:10:16;1.50;;;1.40;;
7233;SDS011;3658;47.992;10.158;2024-03-02T09:12:44;2.07;;;1.70;;
7233;SDS011;3658;47.992;10.158;2024-03-02T09:15:11;2.20;;;1.70;;
7233;SDS011;3658;47.992;10.158;2024-03-02T09:17:38;2.80;;;1.67;;
7233;SDS011;3658;47.992;10.158;2024-03-02T09:20:05;2.00;;;1.80;;
7233;SDS011;3658;47.992;10.158;2024-03-02T09:22:33;2.17;;;1.57;;
7233;SDS011;3658;47.992;10.158;2024-03-02T09:24:59;1.90;;;1.40;;
7233;SDS011;3658;47.992;10.158;2024-03-02T09:27:26;2.33;;;1.57;;
7233;SDS011;3658;47.992;10.158;2024-03-02T09:29:54;3.43;;;1.43;;
7233;SDS011;3658;47.992;10.158;2024-03-02T09:32:21;1.77;;;1.50;;
7233;SDS011;3658;47.992;10.158;2024-03-02T09:34:48;2.47;;;2.27;;
7233;SDS011;3658;47.992;10.158;2024-03-02T09:37:15;2.33;;;1.80;;
7233;SDS011;3658;47.992;10.158;2024-03-02T09:39:43;3.70;;;1.80;;
7233;SDS011;3658;47.992;10.158;2024-03-02T09:42:10;3.40;;;1.70;;
7233;SDS011;3658;47.992;10.158;2024-03-02T09:44:38;4.67;;;1.97;;
7233;SDS011;3658;47.992;10.158;2024-03-02T09:47:08;5.03;;;2.00;;
7233;SDS011;3658;47.992;10.158;2024-03-02T09:49:35;3.07;;;1.77;;
7233;SDS011;3658;47.992;10.158;2024-03-02T09:52:02;4.07;;;2.30;;
7233;SDS011;3658;47.992;10.158;2024-03-02T09:54:31;3.97;;;1.90;;
7233;SDS011;3658;47.992;10.158;2024-03-02T09:56:58;4.43;;;1.83;;
7233;SDS011;3658;47.992;10.158;2024-03-02T09:59:26;4.07;;;1.83;;
7233;SDS011;3658;47.992;10.158;2024-03-02T10:01:57;5.33;;;1.77;;
7233;SDS011;3658;47.992;10.158;2024-03-02T10:04:26;3.73;;;1.97;;
7233;SDS011;3658;47.992;10.158;2024-03-02T10:07:10;3.63;;;1.63;;
7233;SDS011;3658;47.992;10.158;2024-03-02T10:09:38;5.67;;;1.70;;
7233;SDS011;3658;47.992;10.158;2024-03-02T10:12:05;3.53;;;1.70;;
7233;SDS011;3658;47.992;10.158;2024-03-02T10:14:33;1.97;;;1.60;;
7233;SDS011;3658;47.992;10.158;2024-03-02T10:17:03;3.20;;;1.60;;
7233;SDS011;3658;47.992;10.158;2024-03-02T10:19:32;3.63;;;1.67;;
7233;SDS011;3658;47.992;10.158;2024-03-02T10:22:00;12.07;;;2.07;;
7233;SDS011;3658;47.992;10.158;2024-03-02T10:24:34;2.37;;;1.50;;
7233;SDS011;3658;47.992;10.158;2024-03-02T10:27:06;2.80;;;1.73;;
7233;SDS011;3658;47.992;10.158;2024-03-02T10:29:36;4.13;;;1.60;;
7233;SDS011;3658;47.992;10.158;2024-03-02T10:32:04;1.93;;;1.63;;
7233;SDS011;3658;47.992;10.158;2024-03-02T10:34:33;2.50;;;1.63;;
7233;SDS011;3658;47.992;10.158;2024-03-02T10:37:01;2.17;;;1.70;;
7233;SDS011;3658;47.992;10.158;2024-03-02T10:39:28;2.33;;;1.63;;
7233;SDS011;3658;47.992;10.158;2024-03-02T10:41:56;5.50;;;1.80;;
7233;SDS011;3658;47.992;10.158;2024-03-02T10:44:24;2.00;;;1.43;;
7233;SDS011;3658;47.992;10.158;2024-03-02T10:46:52;1.63;;;1.30;;
7233;SDS011;3658;47.992;10.158;2024-03-02T10:49:21;3.60;;;1.50;;
7233;SDS011;3658;47.992;10.158;2024-03-02T10:51:51;1.53;;;1.43;;
7233;SDS011;3658;47.992;10.158;2024-03-02T10:54:18;2.17;;;1.60;;
7233;SDS011;3658;47.992;10.158;2024-03-02T10:56:51;3.00;;;1.50;;
7233;SDS011;3658;47.992;10.158;2024-03-02T10:59:21;2.23;;;1.50;;
7233;SDS011;3658;47.992;10.158;2024-03-02T11:01:53;2.60;;;1.80;;
7233;SDS011;3658;47.992;10.158;2024-03-02T11:04:22;1.60;;;1.30;;
7233;SDS011;3658;47.992;10.158;2024-03-02T11:06:54;1.50;;;1.40;;
7233;SDS011;3658;47.992;10.158;2024-03-02T11:09:26;1.60;;;1.40;;
7233;SDS011;3658;47.992;10.158;2024-03-02T11:11:56;2.40;;;1.57;;
7233;SDS011;3658;47.992;10.158;2024-03-02T11:14:29;1.87;;;1.20;;
7233;SDS011;3658;47.992;10.158;2024-03-02T11:16:56;1.57;;;1.47;;
7233;SDS011;3658;47.992;10.158;2024-03-02T11:19:24;1.70;;;1.50;;
7233;SDS011;3658;47.992;10.158;2024-03-02T11:21:53;2.50;;;1.40;;
7233;SDS011;3658;47.992;10.158;2024-03-02T11:24:33;2.70;;;1.43;;
7233;SDS011;3658;47.992;10.158;2024-03-02T11:27:01;1.40;;;1.30;;
7233;SDS011;3658;47.992;10.158;2024-03-02T11:29:45;2.07;;;1.57;;
7233;SDS011;3658;47.992;10.158;2024-03-02T11:32:13;1.90;;;1.70;;
7233;SDS011;3658;47.992;10.158;2024-03-02T11:34:42;2.20;;;1.50;;
7233;SDS011;3658;47.992;10.158;2024-03-02T11:37:13;1.40;;;1.27;;
7233;SDS011;3658;47.992;10.158;2024-03-02T11:39:40;3.40;;;1.50;;
7233;SDS011;3658;47.992;10.158;2024-03-02T11:42:08;3.53;;;1.43;;
7233;SDS011;3658;47.992;10.158;2024-03-02T11:44:35;1.97;;;1.40;;
7233;SDS011;3658;47.992;10.158;2024-03-02T11:47:07;3.97;;;1.30;;
7233;SDS011;3658;47.992;10.158;2024-03-02T11:49:38;1.53;;;1.43;;
7233;SDS011;3658;47.992;10.158;2024-03-02T11:52:07;1.77;;;1.47;;
7233;SDS011;3658;47.992;10.158;2024-03-02T11:54:36;1.70;;;1.30;;
7233;SDS011;3658;47.992;10.158;2024-03-02T11:57:05;1.97;;;1.30;;
7233;SDS011;3658;47.992;10.158;2024-03-02T11:59:32;2.83;;;1.30;;
7233;SDS011;3658;47.992;10.158;2024-03-02T12:01:59;2.93;;;1.20;;
7233;SDS011;3658;47.992;10.158;2024-03-02T12:04:27;2.27;;;1.40;;
7233;SDS011;3658;47.992;10.158;2024-03-02T12:06:56;1.50;;;1.40;;
7233;SDS011;3658;47.992;10.158;2024-03-02T12:09:26;1.73;;;1.30;;
7233;SDS011;3658;47.992;10.158;2024-03-02T12:12:04;1.93;;;1.50;;
7233;SDS011;3658;47.992;10.158;2024-03-02T12:14:32;2.90;;;1.20;;
7233;SDS011;3658;47.992;10.158;2024-03-02T12:17:00;3.37;;;1.07;;
7233;SDS011;3658;47.992;10.158;2024-03-02T12:19:29;1.67;;;1.20;;
7233;SDS011;3658;47.992;10.158;2024-03-02T12:21:56;3.90;;;1.30;;
7233;SDS011;3658;47.992;10.158;2024-03-02T12:24:24;6.77;;;1.50;;
7233;SDS011;3658;47.992;10.158;2024-03-02T12:26:53;2.40;;;1.30;;
7233;SDS011;3658;47.992;10.158;2024-03-02T12:29:21;4.50;;;1.40;;
7233;SDS011;3658;47.992;10.158;2024-03-02T12:31:49;2.27;;;1.77;;
7233;SDS011;3658;47.992;10.158;2024-03-02T12:34:17;1.97;;;1.50;;
7233;SDS011;3658;47.992;10.158;2024-03-02T12:36:45;1.17;;;1.07;;
7233;SDS011;3658;47.992;10.158;2024-03-02T12:39:14;2.37;;;1.20;;
7233;SDS011;3658;47.992;10.158;2024-03-02T12:41:41;2.80;;;1.20;;
7233;SDS011;3658;47.992;10.158;2024-03-02T12:44:08;4.50;;;1.60;;
7233;SDS011;3658;47.992;10.158;2024-03-02T12:46:36;1.37;;;1.10;;
7233;SDS011;3658;47.992;10.158;2024-03-02T12:49:10;2.53;;;1.47;;
7233;SDS011;3658;47.992;10.158;2024-03-02T12:51:38;1.37;;;1.27;;
7233;SDS011;3658;47.992;10.158;2024-03-02T12:54:06;1.53;;;1.30;;
7233;SDS011;3658;47.992;10.158;2024-03-02T12:56:33;2.23;;;1.20;;
7233;SDS011;3658;47.992;10.158;2024-03-02T12:59:02;1.30;;;1.00;;
7233;SDS011;3658;47.992;10.158;2024-03-02T13:01:29;1.20;;;1.00;;
7233;SDS011;3658;47.992;10.158;2024-03-02T13:03:58;1.33;;;1.00;;
7233;SDS011;3658;47.992;10.158;2024-03-02T13:06:25;1.70;;;1.20;;
7233;SDS011;3658;47.992;10.158;2024-03-02T13:08:54;2.43;;;1.13;;
7233;SDS011;3658;47.992;10.158;2024-03-02T13:11:21;2.30;;;1.20;;
7233;SDS011;3658;47.992;10.158;2024-03-02T13:13:49;1.53;;;1.10;;
7233;SDS011;3658;47.992;10.158;2024-03-02T13:16:16;1.50;;;1.20;;
7233;SDS011;3658;47.992;10.158;2024-03-02T13:18:45;2.13;;;1.10;;
7233;SDS011;3658;47.992;10.158;2024-03-02T13:21:13;1.20;;;1.10;;
7233;SDS011;3658;47.992;10.158;2024-03-02T13:23:40;2.17;;;1.10;;
7233;SDS011;3658;47.992;10.158;2024-03-02T13:26:07;2.97;;;1.20;;
7233;SDS011;3658;47.992;10.158;2024-03-02T13:28:35;5.10;;;1.10;;
7233;SDS011;3658;47.992;10.158;2024-03-02T13:31:03;3.10;;;1.10;;
7233;SDS011;3658;47.992;10.158;2024-03-02T13:33:31;2.23;;;1.00;;
7233;SDS011;3658;47.992;10.158;2024-03-02T13:35:58;1.20;;;1.10;;
7233;SDS011;3658;47.992;10.158;2024-03-02T13:38:26;2.03;;;1.10;;
7233;SDS011;3658;47.992;10.158;2024-03-02T13:40:53;2.63;;;1.30;;
7233;SDS011;3658;47.992;10.158;2024-03-02T13:43:20;2.40;;;1.00;;
7233;SDS011;3658;47.992;10.158;2024-03-02T13:45:48;1.20;;;1.10;;
7233;SDS011;3658;47.992;10.158;2024-03-02T13:48:17;1.10;;;0.97;;
7233;SDS011;3658;47.992;10.158;2024-03-02T13:50:43;1.10;;;1.00;;
7233;SDS011;3658;47.992;10.158;2024-03-02T13:53:10;1.97;;;1.10;;
7233;SDS011;3658;47.992;10.158;2024-03-02T13:55:38;1.40;;;1.00;;
7233;SDS011;3658;47.992;10.158;2024-03-02T13:58:06;1.50;;;1.10;;
7233;SDS011;3658;47.992;10.158;2024-03-02T14:00:34;3.50;;;1.07;;
7233;SDS011;3658;47.992;10.158;2024-03-02T14:03:02;0.93;;;0.93;;
7233;SDS011;3658;47.992;10.158;2024-03-02T14:05:29;1.20;;;1.10;;
7233;SDS011;3658;47.992;10.158;2024-03-02T14:07:56;1.53;;;1.00;;
7233;SDS011;3658;47.992;10.158;2024-03-02T14:10:23;1.17;;;1.00;;
7233;SDS011;3658;47.992;10.158;2024-03-02T14:12:51;1.87;;;1.07;;
7233;SDS011;3658;47.992;10.158;2024-03-02T14:15:20;1.43;;;0.93;;
7233;SDS011;3658;47.992;10.158;2024-03-02T14:17:47;1.40;;;1.00;;
7233;SDS011;3658;47.992;10.158;2024-03-02T14:20:13;1.30;;;1.20;;
7233;SDS011;3658;47.992;10.158;2024-03-02T14:22:46;1.10;;;0.90;;
7233;SDS011;3658;47.992;10.158;2024-03-02T14:25:13;1.07;;;1.00;;
7233;SDS011;3658;47.992;10.158;2024-03-02T14:27:39;1.10;;;1.00;;
7233;SDS011;3658;47.992;10.158;2024-03-02T14:30:08;1.20;;;1.10;;
7233;SDS011;3658;47.992;10.158;2024-03-02T14:32:36;1.50;;;1.20;;
7233;SDS011;3658;47.992;10.158;2024-03-02T14:35:03;2.03;;;1.00;;
7233;SDS011;3658;47.992;10.158;2024-03-02T14:37:30;1.47;;;1.10;;
7233;SDS011;3658;47.992;10.158;2024-03-02T14:39:57;1.13;;;1.03;;
7233;SDS011;3658;47.992;10.158;2024-03-02T14:42:23;1.57;;;0.90;;
7233;SDS011;3658;47.992;10.158;2024-03-02T14:44:50;1.80;;;1.00;;
7233;SDS011;3658;47.992;10.158;2024-03-02T14:47:18;1.83;;;1.20;;
7233;SDS011;3658;47.992;10.158;2024-03-02T14:49:45;1.20;;;1.10;;
7233;SDS011;3658;47.992;10.158;2024-03-02T14:52:11;1.33;;;1.10;;
7233;SDS011;3658;47.992;10.158;2024-03-02T14:54:39;1.23;;;1.00;;
7233;SDS011;3658;47.992;10.158;2024-03-02T14:57:07;0.90;;;0.80;;
7233;SDS011;3658;47.992;10.158;2024-03-02T14:59:34;2.17;;;1.10;;
7233;SDS011;3658;47.992;10.158;2024-03-02T15:02:00;1.17;;;1.00;;
7233;SDS011;3658;47.992;10.158;2024-03-02T15:04:28;1.30;;;1.20;;
7233;SDS011;3658;47.992;10.158;2024-03-02T15:06:55;1.20;;;0.97;;
7233;SDS011;3658;47.992;10.158;2024-03-02T15:09:22;1.20;;;1.00;;